createdAt,value
2023-03-06T00:04:41.361Z,79.72
2023-03-06T00:09:43.065Z,79.70
2023-03-06T00:14:44.907Z,79.73
2023-03-06T00:19:46.790Z,79.82
2023-03-06T00:24:48.602Z,79.96
2023-03-06T00:29:57.814Z,80.03
2023-03-06T00:34:59.583Z,80.19
2023-03-06T00:40:01.566Z,80.25
2023-03-06T00:45:04.900Z,80.14
2023-03-06T00:50:08.094Z,80.13
2023-03-06T00:55:10.695Z,80.31
2023-03-06T01:00:14.320Z,80.40
2023-03-06T01:05:16.273Z,80.62
2023-03-06T01:10:18.283Z,80.78
2023-03-06T01:15:21.357Z,81.01
2023-03-06T01:20:23.349Z,81.00
2023-03-06T01:25:26.034Z,81.03
2023-03-06T01:30:27.908Z,81.01
2023-03-06T01:35:29.738Z,80.97
2023-03-06T01:40:34.019Z,80.95
2023-03-06T01:45:35.724Z,81.07
2023-03-06T01:50:37.880Z,80.86
2023-03-06T01:55:40.067Z,80.76
2023-03-06T02:00:41.852Z,80.68
2023-03-06T02:05:44.297Z,80.79
2023-03-06T02:10:58.912Z,80.89
2023-03-06T02:16:01.923Z,80.85
2023-03-06T02:21:09.234Z,80.92
2023-03-06T02:26:12.737Z,81.16
2023-03-06T02:31:28.993Z,81.24
2023-03-06T02:36:34.744Z,81.31
2023-03-06T02:41:36.491Z,81.38
2023-03-06T02:46:38.176Z,81.41
2023-03-06T02:51:39.936Z,81.58
2023-03-06T02:56:41.717Z,81.58
2023-03-06T03:01:43.545Z,81.79
2023-03-06T03:06:45.290Z,81.87
2023-03-06T03:11:46.931Z,82.07
2023-03-06T03:16:48.606Z,82.03
2023-03-06T03:21:50.276Z,81.94
2023-03-06T03:26:52.361Z,82.03
2023-03-06T03:31:54.135Z,82.01
2023-03-06T03:36:55.913Z,81.93
2023-03-06T03:41:57.588Z,81.84
2023-03-06T03:46:59.279Z,81.75
2023-03-06T03:52:00.936Z,81.56
2023-03-06T03:57:03.214Z,81.56
2023-03-06T04:02:05.166Z,81.72
2023-03-06T04:07:06.869Z,81.88
2023-03-06T04:12:09.057Z,81.95
2023-03-06T04:17:10.831Z,82.05
2023-03-06T04:22:12.704Z,81.97
2023-03-06T04:27:14.399Z,81.93
2023-03-06T04:32:16.178Z,82.08
2023-03-06T04:37:24.300Z,82.26
2023-03-06T04:42:26.057Z,82.42
2023-03-06T04:47:27.827Z,82.63
2023-03-06T04:52:29.733Z,82.86
2023-03-06T04:57:31.449Z,82.86
2023-03-06T05:02:33.549Z,82.72
2023-03-06T05:07:35.552Z,83.03
2023-03-06T05:12:38.952Z,82.99
2023-03-06T05:17:41.248Z,83.14
2023-03-06T05:22:44.040Z,82.86
2023-03-06T05:27:46.343Z,82.82
2023-03-06T05:32:49.203Z,82.89
2023-03-06T05:37:51.319Z,82.96
2023-03-06T05:42:53.318Z,83.04
2023-03-06T05:47:55.275Z,83.08
2023-03-06T05:52:57.057Z,82.89
2023-03-06T05:57:58.880Z,82.78
2023-03-06T06:03:01.940Z,82.82
2023-03-06T06:08:03.812Z,82.75
2023-03-06T06:13:06.103Z,82.71
2023-03-06T06:18:07.803Z,82.50
2023-03-06T06:23:12.647Z,82.27
2023-03-06T06:28:14.493Z,82.07
2023-03-06T06:33:16.275Z,81.75
2023-03-06T06:38:19.472Z,81.47
2023-03-06T06:43:21.219Z,81.31
2023-03-06T06:48:23.080Z,81.11
2023-03-06T06:53:27.404Z,80.88
2023-03-06T06:58:29.754Z,80.57
2023-03-06T07:03:31.654Z,80.39
2023-03-06T07:08:34.641Z,79.96
2023-03-06T07:13:36.408Z,79.55
2023-03-06T07:18:38.283Z,79.14
2023-03-06T07:23:40.772Z,79.04
2023-03-06T07:28:52.035Z,78.67
2023-03-06T07:33:55.281Z,78.29
2023-03-06T07:38:56.966Z,78.14
2023-03-06T07:43:59.550Z,77.39
2023-03-06T07:49:01.350Z,77.15
2023-03-06T07:54:03.291Z,77.00
2023-03-06T07:59:04.985Z,76.96
2023-03-06T08:04:07.096Z,76.89
2023-03-06T08:09:08.940Z,76.76
2023-03-06T08:14:10.846Z,76.66
2023-03-06T08:19:12.602Z,76.06
2023-03-06T08:24:16.332Z,75.76
2023-03-06T08:29:18.094Z,75.51
2023-03-06T08:34:26.509Z,75.55
2023-03-06T08:39:28.392Z,74.75
2023-03-06T08:44:30.148Z,74.44
2023-03-06T08:49:32.557Z,72.68
2023-03-06T08:54:36.195Z,71.98
2023-03-06T08:59:38.159Z,71.52
2023-03-06T09:04:40.057Z,71.32
2023-03-06T09:09:42.217Z,70.15
2023-03-06T09:14:44.017Z,69.13
2023-03-06T09:19:45.769Z,67.88
2023-03-06T09:24:47.548Z,67.44
2023-03-06T09:29:49.526Z,66.64
2023-03-06T09:34:51.303Z,65.92
2023-03-06T09:39:53.184Z,64.61
2023-03-06T09:44:58.731Z,60.93
2023-03-06T09:50:34.157Z,59.71
2023-03-06T09:55:39.739Z,57.23
2023-03-06T10:01:03.152Z,55.62
2023-03-06T10:06:18.024Z,55.02
2023-03-06T10:11:32.531Z,53.78
2023-03-06T10:16:34.382Z,55.09
2023-03-06T10:22:00.523Z,54.73
2023-03-06T10:27:42.898Z,53.34
2023-03-06T10:32:59.213Z,53.97
2023-03-06T10:38:22.488Z,53.53
2023-03-06T10:43:24.431Z,53.06
2023-03-06T10:48:32.240Z,52.13
2023-03-06T10:53:34.329Z,51.33
2023-03-06T10:58:35.999Z,50.83
2023-03-06T11:03:38.019Z,49.15
2023-03-06T11:08:43.912Z,48.99
2023-03-06T11:13:58.204Z,49.06
2023-03-06T11:19:04.998Z,50.28
2023-03-06T11:24:18.270Z,48.34
2023-03-06T11:29:48.965Z,48.08
2023-03-06T11:35:28.514Z,46.90
2023-03-06T11:40:42.787Z,47.47
2023-03-06T11:45:58.845Z,48.06
2023-03-06T11:51:16.917Z,47.97
2023-03-06T11:56:18.576Z,46.61
2023-03-06T12:01:54.695Z,47.69
2023-03-06T12:07:24.408Z,47.06
2023-03-06T12:12:41.537Z,46.15
2023-03-06T12:18:21.734Z,46.03
2023-03-06T12:23:45.487Z,46.68
2023-03-06T12:29:10.506Z,47.03
2023-03-06T12:34:36.764Z,45.01
2023-03-06T12:40:09.580Z,44.56
2023-03-06T12:45:23.931Z,42.78
2023-03-06T12:50:27.254Z,42.83
2023-03-06T12:55:45.716Z,44.21
2023-03-06T13:01:11.187Z,44.26
2023-03-06T13:06:49.870Z,43.10
2023-03-06T13:12:04.767Z,42.76
2023-03-06T13:17:37.575Z,39.88
2023-03-06T13:22:44.873Z,40.11
2023-03-06T13:27:53.212Z,41.98
2023-03-06T13:32:55.999Z,40.79
2023-03-06T13:37:59.929Z,38.08
2023-03-06T13:43:07.952Z,39.45
2023-03-06T13:48:46.004Z,40.32
2023-03-06T13:54:31.399Z,40.87
2023-03-06T14:00:08.209Z,40.66
2023-03-06T14:05:16.527Z,41.72
2023-03-06T14:10:25.745Z,41.83
2023-03-06T14:15:45.995Z,42.92
2023-03-06T14:20:56.741Z,43.76
2023-03-06T14:26:18.212Z,44.63
2023-03-06T14:31:27.690Z,44.96
2023-03-06T14:36:29.808Z,44.30
2023-03-06T14:41:36.145Z,45.38
2023-03-06T14:46:38.004Z,45.97
2023-03-06T14:51:47.990Z,45.40
2023-03-06T14:57:13.065Z,45.15
2023-03-06T15:02:22.270Z,47.30
2023-03-06T15:07:31.969Z,46.86
2023-03-06T15:12:36.656Z,47.06
2023-03-06T15:17:48.745Z,47.69
2023-03-06T15:22:50.606Z,48.25
2023-03-06T15:27:59.912Z,49.03
2023-03-06T15:33:19.376Z,49.10
2023-03-06T15:38:42.419Z,49.66
2023-03-06T15:43:44.299Z,51.08
2023-03-06T15:49:03.430Z,50.24
2023-03-06T15:54:12.368Z,51.33
2023-03-06T15:59:32.562Z,51.42
2023-03-06T16:04:34.515Z,53.13
2023-03-06T16:09:36.697Z,52.95
2023-03-06T16:14:39.301Z,52.46
2023-03-06T16:19:41.595Z,52.61
2023-03-06T16:24:43.489Z,53.31
2023-03-06T16:29:45.764Z,54.25
2023-03-06T16:34:47.618Z,55.28
2023-03-06T16:39:49.489Z,54.97
2023-03-06T16:44:51.340Z,55.15
2023-03-06T16:49:57.379Z,56.50
2023-03-06T16:54:59.223Z,58.63
2023-03-06T17:00:01.406Z,60.37
2023-03-06T17:05:05.310Z,61.35
2023-03-06T17:10:12.568Z,61.89
2023-03-06T17:15:14.310Z,62.49
2023-03-06T17:20:16.098Z,63.57
2023-03-06T17:25:17.961Z,64.36
2023-03-06T17:30:20.042Z,64.86
2023-03-06T17:35:21.862Z,65.04
2023-03-06T17:40:25.125Z,65.06
2023-03-06T17:45:29.075Z,65.44
2023-03-06T17:50:31.036Z,66.24
2023-03-06T17:55:32.908Z,65.71
2023-03-06T18:00:35.612Z,66.01
2023-03-06T18:05:38.406Z,66.16
2023-03-06T18:10:42.742Z,66.60
2023-03-06T18:15:44.549Z,66.93
2023-03-06T18:20:47.273Z,67.39
2023-03-06T18:25:50.118Z,67.99
2023-03-06T18:30:51.810Z,68.44
2023-03-06T18:35:53.688Z,68.99
2023-03-06T18:40:55.648Z,69.39
2023-03-06T18:45:57.808Z,69.71
2023-03-06T18:51:06.308Z,69.85
2023-03-06T18:56:15.721Z,70.11
2023-03-06T19:01:18.241Z,70.36
2023-03-06T19:06:20.301Z,70.44
2023-03-06T19:11:22.073Z,70.26
2023-03-06T19:16:30.389Z,70.50
2023-03-06T19:21:32.391Z,70.61
2023-03-06T19:26:34.058Z,70.74
2023-03-06T19:31:35.970Z,70.96
2023-03-06T19:36:40.165Z,71.15
2023-03-06T19:41:41.889Z,71.25
2023-03-06T19:46:43.699Z,71.36
2023-03-06T19:51:45.727Z,71.50
2023-03-06T19:56:47.385Z,71.81
2023-03-06T20:01:49.188Z,72.11
2023-03-06T20:06:51.222Z,72.66
2023-03-06T20:11:53.231Z,73.11
2023-03-06T20:16:54.977Z,73.24
2023-03-06T20:21:56.672Z,73.47
2023-03-06T20:26:59.058Z,73.72
2023-03-06T20:32:01.117Z,73.29
2023-03-06T20:37:03.099Z,72.90
2023-03-06T20:42:05.589Z,73.04
2023-03-06T20:47:08.592Z,73.14
2023-03-06T20:52:10.487Z,73.18
2023-03-06T20:57:12.570Z,73.68
2023-03-06T21:02:14.867Z,74.11
2023-03-06T21:07:17.072Z,74.21
2023-03-06T21:12:18.903Z,74.71
2023-03-06T21:17:20.790Z,74.90
2023-03-06T21:22:22.658Z,75.32
2023-03-06T21:27:24.437Z,75.72
2023-03-06T21:32:26.293Z,76.41
2023-03-06T21:37:28.320Z,76.64
2023-03-06T21:42:29.960Z,76.54
2023-03-06T21:47:37.271Z,76.36
2023-03-06T21:52:39.661Z,76.41
2023-03-06T21:57:42.153Z,76.31
2023-03-06T22:02:44.147Z,76.31
2023-03-06T22:07:46.014Z,76.44
2023-03-06T22:12:47.705Z,76.60
2023-03-06T22:17:49.378Z,76.68
2023-03-06T22:22:51.232Z,77.08
2023-03-06T22:27:52.897Z,77.10
2023-03-06T22:32:54.713Z,77.21
2023-03-06T22:37:58.187Z,77.30
2023-03-06T22:42:59.869Z,77.54
2023-03-06T22:48:10.637Z,77.85
2023-03-06T22:53:13.037Z,78.17
2023-03-06T22:58:14.813Z,78.24
2023-03-06T23:03:16.586Z,78.36
2023-03-06T23:08:18.365Z,78.39
2023-03-06T23:13:20.342Z,78.43
2023-03-06T23:18:22.224Z,78.38
2023-03-06T23:23:25.671Z,78.63
2023-03-06T23:28:28.328Z,78.85
2023-03-06T23:33:30.118Z,79.38
2023-03-06T23:38:32.600Z,79.50
2023-03-06T23:43:34.887Z,79.61
2023-03-06T23:48:40.000Z,80.01
2023-03-06T23:53:43.864Z,79.99
2023-03-06T23:58:45.752Z,79.99
